createdAt,value
2018-02-10T00:00:46.714Z,0.70
2018-02-10T00:03:15.093Z,0.70
2018-02-10T00:05:43.485Z,0.70
2018-02-10T00:08:11.874Z,0.70
2018-02-10T00:10:41.054Z,0.70
2018-02-10T00:13:09.467Z,0.60
2018-02-10T00:15:37.865Z,0.70
2018-02-10T00:18:07.366Z,0.80
2018-02-10T00:20:35.792Z,0.80
2018-02-10T00:23:03.877Z,0.80
2018-02-10T00:25:33.010Z,0.80
2018-02-10T00:28:01.418Z,0.80
2018-02-10T00:30:29.787Z,0.80
2018-02-10T00:32:58.176Z,0.80
2018-02-10T00:35:26.559Z,0.80
2018-02-10T00:37:54.939Z,0.80
2018-02-10T00:40:23.159Z,0.80
2018-02-10T00:42:51.524Z,0.70
2018-02-10T00:45:20.716Z,0.70
2018-02-10T00:47:49.335Z,0.70
2018-02-10T00:50:17.716Z,0.70
2018-02-10T00:52:46.090Z,0.70
2018-02-10T00:55:14.508Z,0.70
2018-02-10T00:57:42.918Z,0.70
2018-02-10T01:00:12.094Z,0.70
2018-02-10T01:02:40.480Z,0.70
2018-02-10T01:05:09.163Z,0.70
2018-02-10T01:07:37.593Z,0.70
2018-02-10T01:10:06.007Z,0.70
2018-02-10T01:12:34.387Z,0.80
2018-02-10T01:15:02.771Z,0.80
2018-02-10T01:17:31.200Z,0.80
2018-02-10T01:19:59.563Z,0.80
2018-02-10T01:22:27.967Z,0.80
2018-02-10T01:24:56.347Z,0.70
2018-02-10T01:27:24.731Z,0.80
2018-02-10T01:29:53.145Z,0.80
2018-02-10T01:32:21.347Z,0.80
2018-02-10T01:34:50.489Z,0.80
2018-02-10T01:37:18.877Z,0.80
2018-02-10T01:39:47.255Z,0.80
2018-02-10T01:42:15.645Z,0.80
2018-02-10T01:44:44.273Z,0.80
2018-02-10T01:47:12.476Z,0.80
2018-02-10T01:49:40.888Z,0.70
2018-02-10T01:52:09.264Z,0.70
2018-02-10T01:54:37.645Z,0.70
2018-02-10T01:57:06.314Z,0.70
2018-02-10T01:59:34.706Z,0.70
2018-02-10T02:02:03.076Z,0.70
2018-02-10T02:04:31.484Z,0.70
2018-02-10T02:07:00.636Z,0.80
2018-02-10T02:09:29.024Z,0.80
2018-02-10T02:11:57.676Z,0.80
2018-02-10T02:14:26.106Z,0.80
2018-02-10T02:16:54.477Z,0.70
2018-02-10T02:19:22.539Z,0.70
2018-02-10T02:21:50.922Z,0.70
2018-02-10T02:24:19.319Z,0.70
2018-02-10T02:26:48.461Z,0.70
2018-02-10T02:29:16.941Z,0.70
2018-02-10T02:31:45.324Z,0.70
2018-02-10T02:34:13.708Z,0.70
2018-02-10T02:36:42.080Z,0.70
2018-02-10T02:39:10.538Z,0.70
2018-02-10T02:41:38.920Z,0.70
2018-02-10T02:44:07.312Z,0.60
2018-02-10T02:46:35.680Z,0.70
2018-02-10T02:49:04.066Z,0.60
2018-02-10T02:51:32.471Z,0.70
2018-02-10T02:54:00.841Z,0.70
2018-02-10T02:56:29.229Z,0.70
2018-02-10T02:58:57.607Z,0.60
2018-02-10T03:01:26.770Z,0.60
2018-02-10T03:03:55.155Z,0.60
2018-02-10T03:06:23.561Z,0.60
2018-02-10T03:08:51.946Z,0.60
2018-02-10T03:11:20.333Z,0.60
2018-02-10T03:13:48.726Z,0.50
2018-02-10T03:16:17.908Z,0.50
2018-02-10T03:18:46.285Z,0.50
2018-02-10T03:21:14.672Z,0.50
2018-02-10T03:23:43.049Z,0.40
2018-02-10T03:26:11.450Z,0.50
2018-02-10T03:28:39.834Z,0.50
2018-02-10T03:31:08.219Z,0.40
2018-02-10T03:33:36.609Z,0.40
2018-02-10T03:36:04.990Z,0.40
2018-02-10T03:38:33.375Z,0.40
2018-02-10T03:41:01.759Z,0.30
2018-02-10T03:43:29.832Z,0.40
2018-02-10T03:45:58.499Z,0.40
2018-02-10T03:48:26.884Z,0.40
2018-02-10T03:50:55.254Z,0.40
2018-02-10T03:53:23.632Z,0.40
2018-02-10T03:55:52.015Z,0.40
2018-02-10T03:58:20.415Z,0.30
2018-02-10T04:00:48.802Z,0.30
2018-02-10T04:03:17.199Z,0.40
2018-02-10T04:05:45.646Z,0.50
2018-02-10T04:08:14.054Z,0.50
2018-02-10T04:10:42.421Z,0.50
2018-02-10T04:13:10.809Z,0.50
2018-02-10T04:15:39.177Z,0.60
2018-02-10T04:18:07.556Z,0.60
2018-02-10T04:20:35.948Z,0.60
2018-02-10T04:23:04.335Z,0.60
2018-02-10T04:25:33.500Z,0.60
2018-02-10T04:28:01.865Z,0.60
2018-02-10T04:30:30.243Z,0.60
2018-02-10T04:32:58.618Z,0.70
2018-02-10T04:35:27.024Z,0.70
2018-02-10T04:37:55.405Z,0.70
2018-02-10T04:40:23.800Z,0.70
2018-02-10T04:42:52.197Z,0.70
2018-02-10T04:45:21.340Z,0.70
2018-02-10T04:47:49.714Z,0.70
2018-02-10T04:50:18.117Z,0.70
2018-02-10T04:52:46.493Z,0.70
2018-02-10T04:55:14.883Z,0.70
2018-02-10T04:57:43.268Z,0.70
2018-02-10T05:00:12.684Z,0.70
2018-02-10T05:02:41.832Z,0.80
2018-02-10T05:05:10.975Z,0.70
2018-02-10T05:07:40.131Z,0.80
2018-02-10T05:10:08.167Z,0.80
2018-02-10T05:12:36.590Z,0.80
2018-02-10T05:15:05.753Z,0.80
2018-02-10T05:17:34.164Z,0.70
2018-02-10T05:20:02.562Z,0.80
2018-02-10T05:22:31.741Z,0.80
2018-02-10T05:25:00.116Z,0.80
2018-02-10T05:27:28.578Z,0.80
2018-02-10T05:29:57.120Z,0.80
2018-02-10T05:32:25.656Z,0.80
2018-02-10T05:34:55.251Z,0.80
2018-02-10T05:37:23.640Z,0.80
2018-02-10T05:39:52.044Z,0.80
2018-02-10T05:42:20.714Z,0.80
2018-02-10T05:44:49.084Z,0.90
2018-02-10T05:47:17.475Z,0.90
2018-02-10T05:49:45.849Z,0.90
2018-02-10T05:52:14.219Z,0.90
2018-02-10T05:54:42.884Z,0.90
2018-02-10T05:57:11.262Z,0.90
2018-02-10T05:59:39.656Z,0.90
2018-02-10T06:02:08.040Z,0.90
2018-02-10T06:04:36.424Z,0.90
2018-02-10T06:07:04.816Z,1.00
2018-02-10T06:09:33.975Z,1.00
2018-02-10T06:12:02.359Z,1.00
2018-02-10T06:14:31.512Z,1.00
2018-02-10T06:16:59.880Z,1.00
2018-02-10T06:19:29.054Z,1.00
2018-02-10T06:21:57.521Z,1.00
2018-02-10T06:24:25.926Z,1.00
2018-02-10T06:26:55.080Z,1.00
2018-02-10T06:29:23.485Z,1.00
2018-02-10T06:31:52.639Z,1.00
2018-02-10T06:34:21.036Z,1.00
2018-02-10T06:36:49.485Z,1.00
2018-02-10T06:39:17.919Z,1.00
2018-02-10T06:41:46.300Z,1.00
2018-02-10T06:44:14.665Z,1.10
2018-02-10T06:46:43.091Z,1.00
2018-02-10T06:49:11.489Z,1.00
2018-02-10T06:51:39.971Z,1.00
2018-02-10T06:54:08.354Z,1.00
2018-02-10T06:56:36.741Z,1.00
2018-02-10T06:59:05.133Z,1.00
2018-02-10T07:01:33.523Z,1.00
2018-02-10T07:04:01.903Z,1.00
2018-02-10T07:06:30.298Z,1.10
2018-02-10T07:09:00.209Z,1.10
2018-02-10T07:11:29.389Z,1.10
2018-02-10T07:13:57.768Z,1.10
2018-02-10T07:16:26.184Z,1.10
2018-02-10T07:18:54.557Z,1.10
2018-02-10T07:21:23.807Z,1.10
2018-02-10T07:23:52.180Z,1.10
2018-02-10T07:26:21.379Z,1.20
2018-02-10T07:28:49.781Z,1.10
2018-02-10T07:31:18.171Z,1.20
2018-02-10T07:33:47.411Z,1.20
2018-02-10T07:36:15.828Z,1.20
2018-02-10T07:38:44.228Z,1.20
2018-02-10T07:41:13.388Z,1.20
2018-02-10T07:43:41.772Z,1.20
2018-02-10T07:46:10.164Z,1.20
2018-02-10T07:48:38.565Z,1.30
2018-02-10T07:51:07.712Z,1.30
2018-02-10T07:53:36.105Z,1.30
2018-02-10T07:56:04.485Z,1.30
2018-02-10T07:58:33.081Z,1.30
2018-02-10T08:01:03.104Z,1.30
2018-02-10T08:03:31.492Z,1.30
2018-02-10T08:06:00.647Z,1.30
2018-02-10T08:08:29.037Z,1.40
2018-02-10T08:10:58.173Z,1.30
2018-02-10T08:13:27.314Z,1.40
2018-02-10T08:15:55.743Z,1.40
2018-02-10T08:18:24.908Z,1.40
2018-02-10T08:20:53.293Z,1.40
2018-02-10T08:23:21.700Z,1.40
2018-02-10T08:25:50.357Z,1.40
2018-02-10T08:28:18.736Z,1.40
2018-02-10T08:30:47.123Z,1.50
2018-02-10T08:33:15.515Z,1.50
2018-02-10T08:35:44.748Z,1.50
2018-02-10T08:38:13.117Z,1.50
2018-02-10T08:40:41.504Z,1.60
2018-02-10T08:43:09.876Z,1.50
2018-02-10T08:45:38.362Z,1.50
2018-02-10T08:48:06.736Z,1.60
2018-02-10T08:50:35.139Z,1.60
2018-02-10T08:53:03.550Z,1.60
2018-02-10T08:55:31.948Z,1.60
2018-02-10T08:58:01.081Z,1.60
2018-02-10T09:00:29.454Z,1.60
2018-02-10T09:02:57.863Z,1.60
2018-02-10T09:05:26.236Z,1.60
2018-02-10T09:07:54.641Z,1.70
2018-02-10T09:10:23.013Z,1.60
2018-02-10T09:12:51.399Z,1.70
2018-02-10T09:15:20.640Z,1.70
2018-02-10T09:17:49.029Z,1.70
2018-02-10T09:20:17.498Z,1.70
2018-02-10T09:22:45.882Z,1.80
2018-02-10T09:25:14.254Z,1.80
2018-02-10T09:27:42.634Z,1.90
2018-02-10T09:30:11.022Z,2.00
2018-02-10T09:32:39.409Z,2.10
2018-02-10T09:35:07.779Z,2.10
2018-02-10T09:37:36.173Z,2.00
2018-02-10T09:40:04.573Z,2.00
2018-02-10T09:42:33.001Z,1.90
2018-02-10T09:45:01.380Z,2.00
2018-02-10T09:47:29.753Z,2.00
2018-02-10T09:49:58.157Z,2.10
2018-02-10T09:52:26.529Z,2.10
2018-02-10T09:54:54.923Z,2.10
2018-02-10T09:57:23.298Z,2.10
2018-02-10T09:59:51.696Z,2.10
2018-02-10T10:02:20.056Z,1.90
2018-02-10T10:04:48.448Z,2.00
2018-02-10T10:07:16.837Z,2.10
2018-02-10T10:09:45.228Z,2.00
2018-02-10T10:12:14.205Z,2.10
2018-02-10T10:14:42.570Z,2.10
2018-02-10T10:17:10.944Z,2.00
2018-02-10T10:19:39.345Z,2.00
2018-02-10T10:22:08.484Z,2.10
2018-02-10T10:24:36.863Z,2.10
2018-02-10T10:27:05.248Z,2.00
2018-02-10T10:29:33.620Z,2.10
2018-02-10T10:32:01.992Z,2.10
2018-02-10T10:34:30.467Z,2.20
2018-02-10T10:36:58.842Z,2.20
2018-02-10T10:39:27.224Z,2.20
2018-02-10T10:41:55.667Z,2.20
2018-02-10T10:44:24.046Z,2.30
2018-02-10T10:46:52.420Z,2.20
2018-02-10T10:49:20.856Z,2.20
2018-02-10T10:51:49.229Z,2.20
2018-02-10T10:54:17.647Z,2.20
2018-02-10T10:56:46.049Z,2.30
2018-02-10T10:59:15.184Z,2.30
2018-02-10T11:01:43.567Z,2.30
2018-02-10T11:04:11.953Z,2.30
2018-02-10T11:06:40.337Z,2.30
2018-02-10T11:09:08.729Z,2.30
2018-02-10T11:11:37.132Z,2.40
2018-02-10T11:14:06.312Z,2.00
2018-02-10T11:16:34.690Z,2.00
2018-02-10T11:19:03.092Z,2.00
2018-02-10T11:21:32.240Z,1.90
2018-02-10T11:24:01.562Z,1.90
2018-02-10T11:26:29.947Z,1.90
2018-02-10T11:28:58.326Z,1.70
2018-02-10T11:31:26.744Z,1.70
2018-02-10T11:33:55.140Z,1.80
2018-02-10T11:36:23.520Z,1.90
2018-02-10T11:38:51.940Z,2.00
2018-02-10T11:41:20.451Z,2.10
2018-02-10T11:43:49.606Z,2.20
2018-02-10T11:46:18.801Z,2.10
2018-02-10T11:48:47.203Z,2.10
2018-02-10T11:51:16.347Z,2.10
2018-02-10T11:53:44.730Z,2.10
2018-02-10T11:56:13.131Z,2.20
2018-02-10T11:58:41.500Z,2.20
2018-02-10T12:01:09.884Z,2.00
2018-02-10T12:03:38.278Z,1.80
2018-02-10T12:06:06.647Z,2.00
2018-02-10T12:08:35.021Z,2.10
2018-02-10T12:11:03.083Z,2.20
2018-02-10T12:13:31.482Z,2.10
2018-02-10T12:15:59.860Z,2.00
2018-02-10T12:18:28.277Z,1.90
2018-02-10T12:20:56.705Z,2.00
2018-02-10T12:23:25.069Z,1.80
2018-02-10T12:25:53.468Z,1.70
2018-02-10T12:28:21.883Z,1.90
2018-02-10T12:30:51.011Z,2.00
2018-02-10T12:33:19.543Z,2.00
2018-02-10T12:35:47.905Z,2.00
2018-02-10T12:38:17.082Z,1.90
2018-02-10T12:40:45.479Z,2.00
2018-02-10T12:43:13.880Z,1.90
2018-02-10T12:45:43.908Z,1.90
2018-02-10T12:51:07.183Z,2.00
2018-02-10T12:53:36.420Z,2.00
2018-02-10T12:56:04.815Z,2.00
2018-02-10T12:58:33.212Z,2.00
2018-02-10T13:01:01.613Z,2.10
2018-02-10T13:03:30.812Z,2.10
2018-02-10T13:05:59.275Z,2.10
2018-02-10T13:08:27.694Z,2.20
2018-02-10T13:11:02.044Z,2.30
2018-02-10T13:13:30.447Z,2.30
2018-02-10T13:15:58.962Z,2.40
2018-02-10T13:18:27.448Z,2.40
2018-02-10T13:20:55.932Z,2.30
2018-02-10T13:23:24.324Z,2.30
2018-02-10T13:25:52.748Z,2.40
2018-02-10T13:28:20.960Z,2.30
2018-02-10T13:30:49.331Z,2.40
2018-02-10T13:33:18.472Z,2.30
2018-02-10T13:35:46.895Z,2.30
2018-02-10T13:38:16.075Z,2.30
2018-02-10T13:40:44.573Z,2.30
2018-02-10T13:43:13.154Z,2.20
2018-02-10T13:45:42.333Z,2.30
2018-02-10T14:01:30.840Z,2.20
2018-02-10T14:03:59.221Z,2.20
2018-02-10T14:06:29.902Z,2.20
2018-02-10T14:08:59.153Z,2.30
2018-02-10T14:11:27.542Z,2.30
2018-02-10T14:13:55.968Z,2.20
2018-02-10T14:16:24.512Z,2.20
2018-02-10T14:18:52.897Z,2.30
2018-02-10T14:21:21.288Z,2.40
2018-02-10T14:23:50.283Z,2.40
2018-02-10T14:26:19.436Z,2.30
2018-02-10T14:28:47.828Z,2.30
2018-02-10T14:31:17.006Z,2.30
2018-02-10T14:33:45.396Z,2.30
2018-02-10T14:36:13.785Z,2.10
2018-02-10T14:38:42.247Z,2.10
2018-02-10T14:41:10.644Z,2.30
2018-02-10T14:43:39.027Z,2.20
2018-02-10T14:46:07.436Z,2.40
2018-02-10T14:48:35.838Z,2.50
2018-02-10T14:51:04.226Z,2.50
2018-02-10T14:53:32.625Z,2.40
2018-02-10T14:56:00.999Z,2.40
2018-02-10T14:58:29.370Z,2.30
2018-02-10T15:00:57.754Z,2.40
2018-02-10T15:03:26.132Z,2.40
2018-02-10T15:05:54.531Z,2.30
2018-02-10T15:08:22.931Z,2.40
2018-02-10T15:10:51.310Z,2.50
2018-02-10T15:13:20.486Z,2.60
2018-02-10T15:15:48.895Z,2.60
2018-02-10T15:18:18.029Z,2.70
2018-02-10T15:20:46.410Z,2.70
2018-02-10T15:23:14.837Z,2.70
2018-02-10T15:25:43.986Z,2.70
2018-02-10T15:28:12.364Z,2.70
2018-02-10T15:30:51.924Z,2.70
2018-02-10T15:33:31.520Z,2.60
2018-02-10T15:35:59.926Z,2.60
2018-02-10T15:38:28.288Z,2.70
2018-02-10T15:40:56.649Z,2.70
2018-02-10T15:43:25.820Z,2.60
2018-02-10T15:45:54.004Z,2.60
2018-02-10T15:48:23.166Z,2.50
2018-02-10T15:50:51.581Z,2.50
2018-02-10T15:53:20.747Z,2.40
2018-02-10T15:55:49.121Z,2.40
2018-02-10T15:58:17.516Z,2.40
2018-02-10T16:00:45.948Z,2.30
2018-02-10T16:03:14.371Z,2.30
2018-02-10T16:05:42.802Z,2.30
2018-02-10T16:08:11.185Z,2.20
2018-02-10T16:10:39.545Z,2.30
2018-02-10T16:13:08.071Z,2.20
2018-02-10T16:15:36.464Z,2.20
2018-02-10T16:18:04.842Z,2.10
2018-02-10T16:20:33.240Z,2.10
2018-02-10T16:23:02.408Z,2.00
2018-02-10T16:25:30.792Z,1.90
2018-02-10T16:27:59.180Z,1.90
2018-02-10T16:30:27.544Z,1.90
2018-02-10T16:32:55.913Z,1.80
2018-02-10T16:35:24.299Z,1.80
2018-02-10T16:37:52.681Z,1.70
2018-02-10T16:40:21.057Z,1.70
2018-02-10T16:42:49.464Z,1.60
2018-02-10T16:45:18.602Z,1.60
2018-02-10T16:47:47.016Z,1.50
2018-02-10T16:50:15.422Z,1.50
2018-02-10T16:52:44.648Z,1.40
2018-02-10T16:55:13.052Z,1.40
2018-02-10T16:57:41.444Z,1.40
2018-02-10T17:00:09.875Z,1.30
2018-02-10T17:02:38.248Z,1.30
2018-02-10T17:05:06.642Z,1.20
2018-02-10T17:07:35.016Z,1.20
2018-02-10T17:10:03.416Z,1.10
2018-02-10T17:12:31.835Z,1.20
2018-02-10T17:15:04.989Z,1.10
2018-02-10T17:17:33.414Z,1.10
2018-02-10T17:20:01.885Z,1.00
2018-02-10T17:22:31.026Z,0.90
2018-02-10T17:24:59.419Z,0.90
2018-02-10T17:27:27.863Z,0.80
2018-02-10T17:29:56.281Z,0.80
2018-02-10T17:32:24.704Z,0.80
2018-02-10T17:34:53.836Z,0.80
2018-02-10T17:37:22.232Z,0.80
2018-02-10T17:39:50.662Z,0.70
2018-02-10T17:42:19.796Z,0.60
2018-02-10T17:44:47.837Z,0.60
2018-02-10T17:47:16.259Z,0.60
2018-02-10T17:49:44.636Z,0.60
2018-02-10T17:52:13.035Z,0.60
2018-02-10T17:54:41.480Z,0.60
2018-02-10T17:57:10.883Z,0.60
2018-02-10T17:59:39.266Z,0.60
2018-02-10T18:02:07.648Z,0.60
2018-02-10T18:04:36.013Z,0.60
2018-02-10T18:07:04.397Z,0.60
2018-02-10T18:09:32.842Z,0.60
2018-02-10T18:12:02.004Z,0.60
2018-02-10T18:14:30.416Z,0.60
2018-02-10T18:16:58.839Z,0.70
2018-02-10T18:19:27.207Z,0.70
2018-02-10T18:21:55.599Z,0.70
2018-02-10T18:24:23.996Z,0.70
2018-02-10T18:26:52.647Z,0.70
2018-02-10T18:29:21.023Z,0.80
2018-02-10T18:31:49.435Z,0.80
2018-02-10T18:34:17.808Z,0.80
2018-02-10T18:36:46.178Z,0.80
2018-02-10T18:39:14.614Z,0.80
2018-02-10T18:41:43.768Z,0.90
2018-02-10T18:44:12.148Z,0.90
2018-02-10T18:46:40.532Z,0.90
2018-02-10T18:49:08.926Z,0.90
2018-02-10T18:51:38.081Z,0.80
2018-02-10T18:54:06.478Z,0.80
2018-02-10T18:56:34.921Z,0.80
2018-02-10T18:59:03.435Z,0.80
2018-02-10T19:01:32.096Z,0.80
2018-02-10T19:04:01.532Z,0.80
2018-02-10T19:06:29.926Z,0.70
2018-02-10T19:08:58.313Z,0.70
2018-02-10T19:11:26.978Z,0.70
2018-02-10T19:13:55.342Z,0.70
2018-02-10T19:16:23.736Z,0.70
2018-02-10T19:18:52.385Z,0.70
2018-02-10T19:21:20.791Z,0.70
2018-02-10T19:23:49.242Z,0.70
2018-02-10T19:26:17.615Z,0.70
2018-02-10T19:28:47.017Z,0.70
2018-02-10T19:31:15.410Z,0.70
2018-02-10T19:33:43.767Z,0.70
2018-02-10T19:36:13.174Z,0.70
2018-02-10T19:38:41.584Z,0.80
2018-02-10T19:41:09.955Z,0.80
2018-02-10T19:43:38.336Z,0.80
2018-02-10T19:46:06.999Z,0.80
2018-02-10T19:48:36.389Z,0.80
2018-02-10T19:51:04.767Z,0.80
2018-02-10T19:53:33.185Z,0.90
2018-02-10T19:56:01.558Z,0.90
2018-02-10T19:58:29.976Z,0.90
2018-02-10T20:00:58.412Z,0.90
2018-02-10T20:03:26.815Z,1.00
2018-02-10T20:05:55.187Z,1.00
2018-02-10T20:08:24.210Z,1.00
2018-02-10T20:10:53.356Z,0.90
2018-02-10T20:13:21.741Z,0.90
2018-02-10T20:15:50.137Z,1.00
2018-02-10T20:18:18.523Z,0.90
2018-02-10T20:20:47.673Z,0.90
2018-02-10T20:23:16.072Z,0.90
2018-02-10T20:25:44.711Z,0.90
2018-02-10T20:28:13.133Z,0.90
2018-02-10T20:30:41.534Z,0.90
2018-02-10T20:33:09.904Z,0.90
2018-02-10T20:35:38.271Z,0.90
2018-02-10T20:38:06.725Z,0.90
2018-02-10T20:40:35.168Z,0.90
2018-02-10T20:43:04.895Z,0.90
2018-02-10T20:45:33.103Z,0.80
2018-02-10T20:48:01.498Z,0.90
2018-02-10T20:50:29.863Z,0.90
2018-02-10T20:52:58.271Z,0.90
2018-02-10T20:55:26.642Z,0.90
2018-02-10T20:57:55.036Z,0.90
2018-02-10T21:00:24.279Z,0.90
2018-02-10T21:02:53.699Z,0.90
2018-02-10T21:05:22.897Z,0.90
2018-02-10T21:07:51.302Z,0.90
2018-02-10T21:10:19.689Z,0.90
2018-02-10T21:12:48.833Z,0.90
2018-02-10T21:15:17.268Z,0.90
2018-02-10T21:17:45.922Z,0.90
2018-02-10T21:20:14.301Z,0.90
2018-02-10T21:22:42.756Z,0.90
2018-02-10T21:25:11.132Z,1.00
2018-02-10T21:27:39.503Z,1.00
2018-02-10T21:30:07.908Z,1.00
2018-02-10T21:32:36.308Z,1.00
2018-02-10T21:35:04.696Z,0.90
2018-02-10T21:37:33.874Z,1.00
2018-02-10T21:40:02.260Z,1.00
2018-02-10T21:42:30.629Z,1.10
2018-02-10T21:44:59.029Z,1.10
2018-02-10T21:47:27.412Z,1.10
2018-02-10T21:49:56.056Z,1.10
2018-02-10T21:52:24.728Z,1.20
2018-02-10T21:54:53.092Z,1.20
2018-02-10T21:57:21.482Z,1.20
2018-02-10T21:59:49.903Z,1.20
2018-02-10T22:02:18.284Z,1.30
2018-02-10T22:04:47.839Z,1.30
2018-02-10T22:07:16.225Z,1.30
2018-02-10T22:09:44.592Z,1.30
2018-02-10T22:14:42.744Z,1.40
2018-02-10T22:17:11.877Z,1.40
2018-02-10T22:19:40.260Z,1.40
2018-02-10T22:22:08.660Z,1.30
2018-02-10T22:24:37.804Z,1.40
2018-02-10T22:27:06.934Z,1.40
2018-02-10T22:29:35.357Z,1.40
2018-02-10T22:32:03.997Z,1.40
2018-02-10T22:34:32.552Z,1.40
2018-02-10T22:37:00.753Z,1.40
2018-02-10T22:39:29.134Z,1.40
2018-02-10T22:44:26.915Z,1.50
2018-02-10T22:46:55.287Z,1.50
2018-02-10T22:49:23.480Z,1.50
2018-02-10T22:51:51.862Z,1.50
2018-02-10T22:54:20.232Z,1.50
2018-02-10T22:56:48.620Z,1.50
2018-02-10T22:59:16.999Z,1.50
2018-02-10T23:01:45.384Z,1.50
2018-02-10T23:04:14.011Z,1.50
2018-02-10T23:06:42.450Z,1.50
2018-02-10T23:09:10.909Z,1.50
2018-02-10T23:11:39.357Z,1.50
2018-02-10T23:14:07.803Z,1.60
2018-02-10T23:16:36.172Z,1.60
2018-02-10T23:19:04.559Z,1.60
2018-02-10T23:21:33.001Z,1.70
2018-02-10T23:24:01.370Z,1.70
2018-02-10T23:26:29.760Z,1.70
2018-02-10T23:28:58.952Z,1.70
2018-02-10T23:31:28.451Z,1.70
2018-02-10T23:33:56.819Z,1.70
2018-02-10T23:36:25.200Z,1.70
2018-02-10T23:38:53.585Z,1.70
2018-02-10T23:41:23.088Z,1.50
2018-02-10T23:43:51.473Z,1.50
2018-02-10T23:46:19.852Z,1.40
2018-02-10T23:48:48.224Z,1.40
2018-02-10T23:51:16.619Z,1.40
2018-02-10T23:53:44.986Z,1.40
2018-02-10T23:56:13.384Z,1.40
2018-02-10T23:58:42.578Z,1.30
